AFL1701 UNKL-ULLI
Flight info
| Callsign | AFL1701 |
|---|---|
| Flight time | N/A |
| Altitude | 36000 |
| Route | BASEL2F BASEL DCT NOVRA B805 LAMEG R497 TODES B228 TERDO DCT RATRI DCT LUTEP DCT TUNAL DCT OTMIL/K0889F380 DCT ARMAB DCT LUPOK DCT MIFAN DCT ASNAS DCT PRIBI DCT BEPOL BEPOL1V |
| Aircraft | B77W/H-SDE1E2E3FGHIJ2J3J4J5M1RWXY/LB1D1 |
Departure
| Time | 2026-05-04 06:05 |
|---|---|
| Airport | Krasnoyarsk International Airport (UNKL) |
Arrival
| Time | N/A |
|---|---|
| Airport | Pulkovo Airport (ULLI) |
| Time | Latitude | Longitude | Altitude | Speed | Heading |
|---|---|---|---|---|---|
| 2026-05-04 05:29 | 56.17951 | 92.48446 | 962 ft | 0 kts | 24° |
| 2026-05-04 05:52 | 56.17939 | 92.48437 | 957 ft | 3 kts | 26° |
| 2026-05-04 05:52 | 56.17921 | 92.48421 | 958 ft | 3 kts | 29° |
| 2026-05-04 05:52 | 56.17906 | 92.48403 | 961 ft | 2 kts | 41° |
| 2026-05-04 05:52 | 56.17897 | 92.48386 | 957 ft | 2 kts | 69° |
| 2026-05-04 05:53 | 56.17895 | 92.48370 | 957 ft | 1 kts | 95° |
| 2026-05-04 05:54 | 56.17900 | 92.48331 | 957 ft | 0 kts | 110° |
| 2026-05-04 05:56 | 56.17893 | 92.48371 | 957 ft | 6 kts | 110° |
| 2026-05-04 05:57 | 56.17872 | 92.48432 | 958 ft | 6 kts | 144° |
| 2026-05-04 05:57 | 56.17804 | 92.48431 | 957 ft | 17 kts | 197° |
| 2026-05-04 05:57 | 56.17696 | 92.48467 | 958 ft | 14 kts | 119° |
| 2026-05-04 05:57 | 56.17684 | 92.48639 | 960 ft | 14 kts | 103° |
| 2026-05-04 05:58 | 56.17645 | 92.48799 | 958 ft | 14 kts | 114° |
| 2026-05-04 05:58 | 56.17607 | 92.48960 | 959 ft | 14 kts | 113° |
| 2026-05-04 05:58 | 56.17567 | 92.49119 | 957 ft | 14 kts | 114° |
| 2026-05-04 05:58 | 56.17530 | 92.49280 | 958 ft | 14 kts | 109° |
| 2026-05-04 05:59 | 56.17486 | 92.49475 | 957 ft | 21 kts | 113° |
| 2026-05-04 05:59 | 56.17428 | 92.49722 | 958 ft | 21 kts | 113° |
| 2026-05-04 05:59 | 56.17370 | 92.49967 | 957 ft | 21 kts | 113° |
| 2026-05-04 05:59 | 56.17311 | 92.50212 | 959 ft | 21 kts | 113° |
| 2026-05-04 06:00 | 56.17253 | 92.50458 | 958 ft | 21 kts | 113° |
| 2026-05-04 06:00 | 56.17195 | 92.50703 | 958 ft | 21 kts | 114° |
| 2026-05-04 06:00 | 56.17135 | 92.50948 | 959 ft | 21 kts | 112° |
| 2026-05-04 06:00 | 56.17078 | 92.51194 | 959 ft | 21 kts | 113° |
| 2026-05-04 06:01 | 56.17019 | 92.51439 | 961 ft | 21 kts | 113° |
| 2026-05-04 06:01 | 56.16986 | 92.51581 | 958 ft | 11 kts | 113° |
| 2026-05-04 06:03 | 56.16689 | 92.51873 | 959 ft | 0 kts | 293° |
| 2026-05-04 06:03 | 56.16694 | 92.51850 | 957 ft | 15 kts | 293° |
| 2026-05-04 06:05 | 56.22120 | 92.40933 | 4660 ft | 226 kts | 322° |
| 2026-05-04 06:05 | 56.24773 | 92.37629 | 6296 ft | 238 kts | 322° |
| 2026-05-04 06:05 | 56.26144 | 92.35899 | 7083 ft | 244 kts | 321° |
| 2026-05-04 06:06 | 56.27546 | 92.34114 | 7893 ft | 249 kts | 321° |
| 2026-05-04 06:06 | 56.28969 | 92.32294 | 8742 ft | 253 kts | 321° |
| 2026-05-04 06:06 | 56.30410 | 92.30443 | 9595 ft | 257 kts | 320° |
| 2026-05-04 06:06 | 56.31878 | 92.28550 | 10355 ft | 263 kts | 321° |
| 2026-05-04 06:07 | 56.33419 | 92.26549 | 10690 ft | 286 kts | 321° |
| 2026-05-04 06:07 | 56.35103 | 92.24356 | 10916 ft | 312 kts | 321° |
| 2026-05-04 06:07 | 56.36937 | 92.21964 | 11253 ft | 334 kts | 321° |
| 2026-05-04 06:07 | 56.38845 | 92.19480 | 12059 ft | 342 kts | 322° |
| 2026-05-04 06:08 | 56.40789 | 92.16950 | 13029 ft | 347 kts | 322° |
| 2026-05-04 06:08 | 56.42755 | 92.14386 | 14047 ft | 350 kts | 322° |
| 2026-05-04 06:08 | 56.44724 | 92.11810 | 14933 ft | 354 kts | 322° |
| 2026-05-04 06:08 | 56.46736 | 92.09176 | 15820 ft | 358 kts | 322° |
| 2026-05-04 06:09 | 56.48768 | 92.06508 | 16673 ft | 363 kts | 322° |
| 2026-05-04 06:09 | 56.50824 | 92.03806 | 17547 ft | 368 kts | 322° |
| 2026-05-04 06:11 | 56.73204 | 91.74066 | 24732 ft | 408 kts | 319° |
| 2026-05-04 06:11 | 56.77315 | 91.66705 | 25730 ft | 415 kts | 309° |
| 2026-05-04 06:13 | 57.03680 | 91.05679 | 31829 ft | 448 kts | 308° |
| 2026-05-04 06:14 | 57.26830 | 90.50928 | 35684 ft | 451 kts | 307° |
| 2026-05-04 06:14 | 57.30609 | 90.41870 | 36032 ft | 454 kts | 307° |
| 2026-05-04 06:15 | 57.38375 | 90.23148 | 36008 ft | 458 kts | 307° |
| 2026-05-04 06:15 | 57.46010 | 90.04599 | 36000 ft | 448 kts | 307° |
| 2026-05-04 06:16 | 57.53442 | 89.86403 | 36010 ft | 443 kts | 307° |
| 2026-05-04 06:16 | 57.60925 | 89.67940 | 36025 ft | 452 kts | 307° |
| 2026-05-04 06:17 | 57.68543 | 89.48997 | 36024 ft | 459 kts | 306° |
| 2026-05-04 06:17 | 57.73985 | 89.27588 | 36012 ft | 454 kts | 288° |
| 2026-05-04 06:18 | 57.77352 | 89.05010 | 36017 ft | 447 kts | 287° |
| 2026-05-04 06:20 | 57.90813 | 88.13612 | 36024 ft | 452 kts | 287° |
| 2026-05-04 06:21 | 57.98859 | 87.57027 | 36056 ft | 455 kts | 287° |
| 2026-05-04 06:22 | 58.02088 | 87.33757 | 36048 ft | 461 kts | 287° |
| 2026-05-04 06:25 | 58.23204 | 85.72091 | 36042 ft | 444 kts | 286° |
| 2026-05-04 06:26 | 58.26020 | 85.49135 | 36064 ft | 451 kts | 286° |
| 2026-05-04 06:26 | 58.28849 | 85.25678 | 36062 ft | 459 kts | 285° |
| 2026-05-04 06:27 | 58.35659 | 84.67464 | 36051 ft | 442 kts | 285° |
| 2026-05-04 06:28 | 58.38280 | 84.44412 | 36067 ft | 450 kts | 285° |
| 2026-05-04 06:28 | 58.40465 | 84.24866 | 36063 ft | 456 kts | 285° |
| 2026-05-04 06:29 | 58.43073 | 84.01122 | 36048 ft | 455 kts | 285° |
| 2026-05-04 06:29 | 58.45596 | 83.77727 | 36090 ft | 445 kts | 285° |
| 2026-05-04 06:30 | 58.47992 | 83.55132 | 36055 ft | 443 kts | 285° |
| 2026-05-04 06:30 | 58.50413 | 83.31891 | 36076 ft | 450 kts | 284° |
| 2026-05-04 06:31 | 58.52836 | 83.08164 | 36073 ft | 458 kts | 284° |
| 2026-05-04 06:31 | 58.55226 | 82.84264 | 36056 ft | 454 kts | 284° |
| 2026-05-04 06:33 | 58.64239 | 81.89583 | 36060 ft | 458 kts | 283° |
| 2026-05-04 06:34 | 58.66394 | 81.65693 | 36051 ft | 449 kts | 283° |
| 2026-05-04 06:34 | 58.68469 | 81.42222 | 36059 ft | 444 kts | 283° |
| 2026-05-04 06:36 | 58.84003 | 80.51267 | 36067 ft | 441 kts | 294° |
| 2026-05-04 06:37 | 58.88402 | 80.29272 | 36068 ft | 440 kts | 294° |
| 2026-05-04 06:37 | 58.92779 | 80.06891 | 36072 ft | 449 kts | 293° |
| 2026-05-04 06:38 | 58.97158 | 79.84235 | 36062 ft | 453 kts | 293° |
| 2026-05-04 06:40 | 59.14120 | 78.93959 | 36059 ft | 451 kts | 292° |
| 2026-05-04 06:40 | 59.18338 | 78.70828 | 36042 ft | 451 kts | 292° |
| 2026-05-04 06:41 | 59.22456 | 78.47958 | 36044 ft | 443 kts | 292° |
| 2026-05-04 06:41 | 59.26473 | 78.25397 | 36041 ft | 438 kts | 291° |
| 2026-05-04 06:42 | 59.30474 | 78.02659 | 36050 ft | 447 kts | 291° |
| 2026-05-04 06:44 | 59.46212 | 77.10322 | 36046 ft | 440 kts | 290° |
| 2026-05-04 06:44 | 59.50045 | 76.87207 | 36039 ft | 449 kts | 290° |
| 2026-05-04 06:45 | 59.53936 | 76.63683 | 36028 ft | 453 kts | 290° |
| 2026-05-04 06:45 | 59.57753 | 76.40209 | 36017 ft | 445 kts | 289° |
| 2026-05-04 06:46 | 59.61423 | 76.17074 | 36021 ft | 439 kts | 289° |
| 2026-05-04 06:46 | 59.65019 | 75.94155 | 36041 ft | 442 kts | 289° |
| 2026-05-04 06:48 | 59.80705 | 75.00825 | 36010 ft | 438 kts | 293° |
| 2026-05-04 06:50 | 59.99086 | 74.08723 | 35988 ft | 441 kts | 292° |
| 2026-05-04 06:51 | 60.03504 | 73.85916 | 36017 ft | 442 kts | 291° |
| 2026-05-04 06:51 | 60.07961 | 73.62634 | 35974 ft | 453 kts | 291° |
| 2026-05-04 06:52 | 60.12414 | 73.39094 | 35979 ft | 455 kts | 291° |
| 2026-05-04 06:52 | 60.16828 | 73.15473 | 35972 ft | 447 kts | 291° |
| 2026-05-04 06:53 | 60.21152 | 72.92051 | 35972 ft | 442 kts | 290° |
| 2026-05-04 06:53 | 60.25385 | 72.68843 | 35971 ft | 449 kts | 290° |
| 2026-05-04 06:54 | 60.29683 | 72.44982 | 35980 ft | 456 kts | 290° |
| 2026-05-04 06:54 | 60.33975 | 72.20845 | 35957 ft | 456 kts | 289° |
| 2026-05-04 06:55 | 60.38175 | 71.96930 | 35950 ft | 448 kts | 289° |
| 2026-05-04 06:55 | 60.42270 | 71.73313 | 35954 ft | 444 kts | 289° |
| 2026-05-04 06:57 | 60.58522 | 70.76449 | 35941 ft | 447 kts | 288° |
| 2026-05-04 06:58 | 60.62441 | 70.52539 | 35940 ft | 447 kts | 290° |
| 2026-05-04 06:58 | 60.68598 | 70.30139 | 35914 ft | 459 kts | 301° |
| 2026-05-04 06:59 | 60.75439 | 70.07938 | 35922 ft | 463 kts | 300° |
| 2026-05-04 06:59 | 60.81550 | 69.85070 | 35894 ft | 452 kts | 289° |
| 2026-05-04 07:01 | 60.98283 | 68.87622 | 35880 ft | 458 kts | 288° |
| 2026-05-04 07:02 | 61.02383 | 68.63075 | 35868 ft | 448 kts | 287° |
| 2026-05-04 07:02 | 61.06373 | 68.38859 | 35868 ft | 444 kts | 287° |
| 2026-05-04 07:03 | 61.09978 | 68.14249 | 35867 ft | 452 kts | 280° |
| 2026-05-04 07:03 | 61.12364 | 67.88517 | 35880 ft | 458 kts | 279° |
| 2026-05-04 07:04 | 61.14758 | 67.62668 | 35859 ft | 454 kts | 279° |
| 2026-05-04 07:04 | 61.17084 | 67.37206 | 35867 ft | 446 kts | 279° |
| 2026-05-04 07:05 | 61.19334 | 67.11991 | 35877 ft | 446 kts | 279° |
| 2026-05-04 07:05 | 61.21546 | 66.86617 | 35879 ft | 455 kts | 278° |
| 2026-05-04 07:06 | 61.24855 | 66.47577 | 35853 ft | 456 kts | 278° |
| 2026-05-04 07:07 | 61.26969 | 66.21868 | 35846 ft | 447 kts | 278° |
| 2026-05-04 07:08 | 61.33985 | 65.31566 | 35835 ft | 458 kts | 277° |
| 2026-05-04 07:09 | 61.34947 | 65.18516 | 35825 ft | 454 kts | 277° |
| 2026-05-04 07:09 | 61.36808 | 64.92751 | 35823 ft | 446 kts | 277° |
| 2026-05-04 07:10 | 61.38604 | 64.67194 | 35840 ft | 447 kts | 276° |
| 2026-05-04 07:12 | 61.43930 | 63.62630 | 35805 ft | 444 kts | 274° |
| 2026-05-04 07:12 | 61.45058 | 63.36833 | 35824 ft | 449 kts | 274° |
| 2026-05-04 07:13 | 61.46157 | 63.10557 | 35812 ft | 457 kts | 273° |
| 2026-05-04 07:13 | 61.47209 | 62.84182 | 35788 ft | 456 kts | 273° |
| 2026-05-04 07:14 | 61.48983 | 62.36416 | 35786 ft | 443 kts | 272° |
| 2026-05-04 07:14 | 61.49581 | 62.19146 | 35800 ft | 447 kts | 272° |
| 2026-05-04 07:15 | 61.50414 | 61.93995 | 35792 ft | 455 kts | 272° |
| 2026-05-04 07:15 | 61.50835 | 61.80765 | 35787 ft | 456 kts | 272° |
| 2026-05-04 07:16 | 61.51242 | 61.67532 | 35776 ft | 454 kts | 272° |
| 2026-05-04 07:16 | 61.51569 | 61.56578 | 35779 ft | 452 kts | 272° |